Whitneyville, Connecticut
Current Conditions -  °F | °C
As of 1:53 PM on Sunday 23 Nov 2014 (Local Time) from KHVN Reporting Station
Scattered Clouds Scattered Clouds  
Wind Chill: 53°   Ceiling: Unl
Heat Index: 53°   Visibility: 10mi
Dew Point: 33°   Wind: 8mph
Humidity: 47%   Direction: 200°SSW
Pressure: 30.14"   Gusts: NA
Location:  41.3475°N, 72.9054°W
Report Text: KHVN 231853Z 20007KT 10SM SCT110 12/01 A3014 RMK AO2 SLP206 T01170006
Loading
Personal Weather Stations






























Interactive Weather Map New forecast layout! Learn more

10-Day Weather Forecast

Advertisements
Track Severe Weather on mobile